Time;durP1;ratioP1;P1;durP2;ratioP2;P2;SDS_P1;SDS_P2;PMS_P1;PMS_P2;Temp;Humidity;BMP_temperature;BMP_pressure;BME280_temperature;BME280_humidity;BME280_pressure;Samples;Min_cycle;Max_cycle;Signal;HPM_P1;HPM_P2
2022/01/10 00:00:10;;;;;;;33.47;18.90;;;1.30;99.90;;;;;;5018112;28;20753;-94
2022/01/10 00:02:36;;;;;;;37.50;18.85;;;1.30;99.90;;;;;;5033902;28;20178;-93
2022/01/10 00:05:02;;;;;;;34.03;18.38;;;1.30;99.90;;;;;;5017401;28;20217;-94
2022/01/10 00:07:28;;;;;;;29.35;16.50;;;1.30;99.90;;;;;;5033619;28;20258;-94
2022/01/10 00:09:54;;;;;;;40.33;19.60;;;1.20;99.90;;;;;;5019159;28;20198;-94
2022/01/10 00:12:19;;;;;;;33.40;19.35;;;1.20;99.90;;;;;;5034266;28;20202;-95
2022/01/10 00:14:45;;;;;;;37.53;19.03;;;1.20;99.90;;;;;;5033614;28;20198;-94
2022/01/10 00:17:11;;;;;;;34.43;18.73;;;1.20;99.90;;;;;;5037036;28;20182;-93
2022/01/10 00:19:37;;;;;;;36.30;19.20;;;1.20;99.90;;;;;;5037509;28;20209;-93
2022/01/10 00:22:06;;;;;;;35.60;19.13;;;1.20;99.90;;;;;;5041313;28;20190;-93
2022/01/10 00:24:32;;;;;;;31.13;17.55;;;1.20;99.90;;;;;;5058771;28;20238;-93
2022/01/10 00:26:58;;;;;;;36.75;20.65;;;1.20;99.90;;;;;;5041048;28;20226;-93
2022/01/10 00:29:23;;;;;;;34.97;19.00;;;1.20;99.90;;;;;;5043287;28;20178;-94
2022/01/10 00:31:49;;;;;;;33.67;18.60;;;1.20;99.90;;;;;;5046890;28;20205;-95
2022/01/10 00:34:15;;;;;;;34.47;19.67;;;1.20;99.90;;;;;;5043796;28;20174;-95
2022/01/10 00:36:41;;;;;;;33.15;17.38;;;1.10;99.90;;;;;;5037344;28;20211;-93
2022/01/10 00:39:07;;;;;;;36.07;16.70;;;1.10;99.90;;;;;;5040787;28;20703;-94
2022/01/10 00:41:32;;;;;;;32.60;18.60;;;1.10;99.90;;;;;;5037684;28;20221;-93
2022/01/10 00:44:00;;;;;;;42.17;18.33;;;1.10;99.90;;;;;;5037311;28;20760;-92
2022/01/10 00:46:26;;;;;;;32.63;18.20;;;1.10;99.90;;;;;;5038641;28;20236;-94
2022/01/10 00:48:52;;;;;;;33.13;19.53;;;1.10;99.90;;;;;;5020752;28;20584;-93
2022/01/10 00:51:18;;;;;;;35.97;20.40;;;1.10;99.90;;;;;;5038716;28;20198;-93
2022/01/10 00:53:44;;;;;;;36.35;20.58;;;1.10;99.90;;;;;;5020816;28;20186;-93
2022/01/10 00:56:10;;;;;;;37.60;19.53;;;1.10;99.90;;;;;;5037126;28;20204;-94
2022/01/10 00:58:36;;;;;;;33.55;18.15;;;1.10;99.90;;;;;;5037155;28;20522;-93
2022/01/10 01:01:05;;;;;;;37.42;18.88;;;1.00;99.90;;;;;;5037420;28;20262;-93
2022/01/10 01:03:31;;;;;;;40.53;20.38;;;1.00;99.90;;;;;;5042231;28;20210;-93
2022/01/10 01:05:57;;;;;;;42.93;21.13;;;1.00;99.90;;;;;;5045778;28;20270;-93
2022/01/10 01:08:23;;;;;;;40.47;20.93;;;1.00;99.90;;;;;;5040227;28;20474;-93
2022/01/10 01:13:29;;;;;;;40.28;20.23;;;1.00;99.90;;;;;;5056670;28;20233;-93
2022/01/10 01:24:08;;;;;;;34.63;19.25;;;1.00;99.90;;;;;;5037921;28;20178;-93
2022/01/10 01:26:39;;;;;;;35.88;18.30;;;1.00;99.90;;;;;;5030000;28;20204;-94
2022/01/10 01:29:07;;;;;;;33.70;18.13;;;1.00;99.90;;;;;;5045970;28;20190;-93
2022/01/10 01:31:33;;;;;;;34.00;18.10;;;1.00;99.90;;;;;;5046691;28;20225;-95
2022/01/10 01:34:00;;;;;;;33.08;19.27;;;0.90;99.90;;;;;;5041898;28;20175;-95
2022/01/10 01:36:27;;;;;;;31.65;16.17;;;0.90;99.90;;;;;;5038335;28;20194;-94
2022/01/10 01:38:54;;;;;;;33.63;18.98;;;0.90;99.90;;;;;;5036323;28;20214;-94
2022/01/10 01:43:50;;;;;;;32.42;17.60;;;0.90;99.90;;;;;;5037557;28;20651;-93
2022/01/10 01:46:17;;;;;;;38.53;20.90;;;0.80;99.90;;;;;;5039125;28;20246;-93
2022/01/10 01:48:43;;;;;;;39.58;20.13;;;0.80;99.90;;;;;;5036533;28;20221;-94
2022/01/10 01:51:09;;;;;;;41.45;20.92;;;0.80;99.90;;;;;;5019872;28;20225;-95
2022/01/10 01:53:36;;;;;;;39.17;19.55;;;0.80;99.90;;;;;;5036301;28;20191;-94
2022/01/10 01:56:04;;;;;;;36.90;20.05;;;0.70;99.90;;;;;;5039876;28;20187;-94
2022/01/10 01:58:31;;;;;;;40.47;21.40;;;0.70;99.90;;;;;;5047403;28;20592;-94
2022/01/10 02:00:57;;;;;;;36.75;20.20;;;0.60;99.90;;;;;;5041569;28;20348;-92
2022/01/10 02:03:23;;;;;;;33.97;19.33;;;0.60;99.90;;;;;;5026285;28;20193;-94
2022/01/10 02:05:49;;;;;;;44.67;20.70;;;0.50;99.90;;;;;;5044212;28;20675;-94
2022/01/10 02:08:14;;;;;;;39.00;22.20;;;0.50;99.90;;;;;;5043052;28;20190;-93
2022/01/10 02:10:40;;;;;;;38.73;19.83;;;0.50;99.90;;;;;;5051887;28;20412;-93
2022/01/10 02:13:06;;;;;;;44.30;21.60;;;0.50;99.90;;;;;;5053882;28;20210;-94
2022/01/10 02:15:46;;;;;;;37.50;20.23;;;0.50;99.90;;;;;;5044743;28;20195;-95
2022/01/10 02:18:17;;;;;;;39.65;20.23;;;0.40;99.90;;;;;;5019051;28;20852;-93
2022/01/10 02:20:45;;;;;;;35.10;18.98;;;0.40;99.90;;;;;;5020093;28;20571;-93
2022/01/10 02:23:11;;;;;;;35.28;17.77;;;0.40;99.90;;;;;;5052978;28;20171;-94
2022/01/10 02:25:37;;;;;;;31.15;15.30;;;0.30;99.90;;;;;;5038373;28;20230;-93
2022/01/10 02:28:03;;;;;;;28.58;15.50;;;0.30;99.90;;;;;;5035624;28;20269;-95
2022/01/10 02:30:30;;;;;;;29.60;17.27;;;0.20;99.90;;;;;;5036146;28;20210;-94
2022/01/10 02:32:57;;;;;;;28.95;16.92;;;0.20;99.90;;;;;;5035372;28;20191;-93
2022/01/10 02:35:27;;;;;;;29.17;16.70;;;0.20;99.90;;;;;;5034858;28;20186;-93
2022/01/10 02:37:55;;;;;;;29.63;16.40;;;0.20;99.90;;;;;;5021803;28;20276;-93
2022/01/10 02:40:24;;;;;;;25.40;16.05;;;0.10;99.90;;;;;;5034498;28;20281;-94
2022/01/10 02:42:51;;;;;;;23.52;14.57;;;0.10;99.90;;;;;;5018820;28;20718;-93
2022/01/10 02:45:17;;;;;;;26.60;14.35;;;0.10;99.90;;;;;;5035217;28;20571;-94
2022/01/10 02:47:43;;;;;;;26.42;15.43;;;0.00;99.90;;;;;;5038635;28;20182;-94
2022/01/10 02:50:10;;;;;;;22.30;14.30;;;0.00;99.90;;;;;;5018735;28;20202;-93
2022/01/10 02:52:36;;;;;;;22.60;14.85;;;0.00;99.90;;;;;;5034906;28;20183;-93
2022/01/10 02:55:04;;;;;;;21.23;13.43;;;-0.10;99.90;;;;;;5018546;28;20337;-93
2022/01/10 02:57:30;;;;;;;26.13;14.68;;;-0.10;99.90;;;;;;5034845;28;20187;-93
2022/01/10 02:59:57;;;;;;;25.50;15.32;;;-0.10;99.90;;;;;;5035549;28;20202;-94
2022/01/10 03:02:28;;;;;;;22.67;14.27;;;-0.10;99.90;;;;;;5044663;28;20183;-94
2022/01/10 03:04:53;;;;;;;25.83;14.23;;;-0.20;99.90;;;;;;5043674;28;20190;-96
2022/01/10 03:07:22;;;;;;;22.27;14.07;;;-0.20;99.90;;;;;;5038847;28;20273;-92
2022/01/10 03:09:48;;;;;;;22.58;14.65;;;-0.20;99.90;;;;;;5036541;28;20202;-94
2022/01/10 03:12:15;;;;;;;23.35;15.10;;;-0.30;99.90;;;;;;5035848;28;20187;-93
2022/01/10 03:14:42;;;;;;;31.80;16.42;;;-0.30;99.90;;;;;;5038931;28;20555;-93
2022/01/10 03:17:08;;;;;;;27.90;16.15;;;-0.30;99.90;;;;;;5034887;28;20186;-94
2022/01/10 03:19:36;;;;;;;25.50;16.40;;;-0.30;99.90;;;;;;5035297;28;20206;-94
2022/01/10 03:22:02;;;;;;;30.17;16.40;;;-0.30;99.90;;;;;;5034873;28;20544;-92
2022/01/10 03:24:28;;;;;;;33.25;17.98;;;-0.30;99.90;;;;;;5034516;28;20217;-94
2022/01/10 03:26:53;;;;;;;26.37;16.30;;;-0.40;99.90;;;;;;5046412;28;20690;-93
2022/01/10 03:29:22;;;;;;;22.97;15.63;;;-0.40;99.90;;;;;;5052825;28;20178;-94
2022/01/10 03:31:48;;;;;;;26.35;15.95;;;-0.40;99.90;;;;;;5048411;28;20205;-93
2022/01/10 03:34:14;;;;;;;24.33;15.80;;;-0.40;99.90;;;;;;5049425;28;20198;-93
2022/01/10 03:36:41;;;;;;;24.63;14.40;;;-0.40;99.90;;;;;;5037427;28;20198;-93
2022/01/10 03:39:07;;;;;;;23.63;14.60;;;-0.40;99.90;;;;;;5041618;28;20210;-92
2022/01/10 03:41:33;;;;;;;27.27;15.03;;;-0.40;99.90;;;;;;5034318;28;20213;-93
2022/01/10 03:43:59;;;;;;;30.05;17.13;;;-0.30;99.90;;;;;;5037411;28;20400;-93
2022/01/10 03:46:27;;;;;;;28.60;15.33;;;-0.30;99.90;;;;;;5040860;28;20237;-93
2022/01/10 03:48:53;;;;;;;24.75;14.73;;;-0.40;99.90;;;;;;5048109;28;21043;-93
2022/01/10 03:51:19;;;;;;;24.40;15.03;;;-0.40;99.90;;;;;;5041126;28;20198;-93
2022/01/10 03:53:44;;;;;;;28.27;15.20;;;-0.40;99.90;;;;;;5037301;28;20432;-93
2022/01/10 03:56:10;;;;;;;19.90;13.83;;;-0.40;99.90;;;;;;5033975;28;20593;-94
2022/01/10 03:58:36;;;;;;;22.60;14.83;;;-0.40;99.90;;;;;;5017607;28;20499;-93
2022/01/10 04:01:04;;;;;;;19.87;11.03;;;-0.40;99.90;;;;;;5033657;28;20526;-93
2022/01/10 04:03:29;;;;;;;23.15;13.75;;;-0.40;99.90;;;;;;5036749;28;20175;-92
2022/01/10 04:05:57;;;;;;;23.37;12.63;;;-0.40;99.90;;;;;;5033795;28;20229;-93
2022/01/10 04:08:22;;;;;;;19.20;12.75;;;-0.50;99.90;;;;;;5035268;28;20181;-93
2022/01/10 04:10:49;;;;;;;22.27;13.07;;;-0.50;99.90;;;;;;5033664;28;20206;-93
2022/01/10 04:13:15;;;;;;;14.38;11.32;;;-0.50;99.90;;;;;;5017363;28;20278;-93
2022/01/10 04:15:40;;;;;;;22.43;12.30;;;-0.40;99.90;;;;;;5034082;28;20221;-92
2022/01/10 04:18:07;;;;;;;18.73;10.90;;;-0.40;99.90;;;;;;5036252;28;20218;-93
2022/01/10 04:20:33;;;;;;;19.83;11.13;;;-0.40;99.90;;;;;;5033569;28;20199;-93
2022/01/10 04:22:59;;;;;;;17.65;10.88;;;-0.30;99.90;;;;;;5033801;28;20194;-93
2022/01/10 04:25:25;;;;;;;23.13;11.30;;;-0.20;99.90;;;;;;5033573;28;20563;-93
2022/01/10 04:27:51;;;;;;;22.47;12.67;;;-0.20;99.90;;;;;;5034813;28;20434;-93
2022/01/10 04:30:17;;;;;;;20.07;12.67;;;-0.10;99.90;;;;;;5036266;28;20479;-94
2022/01/10 04:32:44;;;;;;;20.10;12.07;;;0.00;99.90;;;;;;5034511;28;20751;-94
2022/01/10 04:35:10;;;;;;;16.63;11.60;;;0.00;99.90;;;;;;5033733;28;20444;-93
2022/01/10 04:37:36;;;;;;;19.30;10.48;;;0.10;99.90;;;;;;5033445;28;20285;-94
2022/01/10 04:40:03;;;;;;;16.80;10.43;;;0.20;99.90;;;;;;5037763;28;20273;-94
2022/01/10 04:42:29;;;;;;;18.88;9.70;;;0.20;99.90;;;;;;5033767;28;20207;-94
2022/01/10 04:44:55;;;;;;;12.87;9.07;;;0.30;99.90;;;;;;5016968;28;20213;-94
2022/01/10 04:47:21;;;;;;;15.27;9.40;;;0.30;99.90;;;;;;5016985;28;20940;-93
2022/01/10 04:52:28;;;;;;;16.65;11.20;;;0.40;99.90;;;;;;5037941;28;20183;-94
2022/01/10 04:54:54;;;;;;;23.30;11.48;;;0.50;99.90;;;;;;5042328;28;20233;-92
2022/01/10 04:57:20;;;;;;;21.40;12.05;;;0.50;99.90;;;;;;5033643;28;20186;-94
2022/01/10 04:59:46;;;;;;;16.23;10.20;;;0.50;99.90;;;;;;5033924;28;20199;-94
2022/01/10 05:02:12;;;;;;;20.93;11.30;;;0.50;99.90;;;;;;5034920;28;20190;-93
2022/01/10 05:04:37;;;;;;;19.07;11.50;;;0.50;99.90;;;;;;5037806;28;20400;-93
2022/01/10 05:07:04;;;;;;;19.10;11.60;;;0.50;99.90;;;;;;5042637;28;20437;-94
2022/01/10 05:09:30;;;;;;;16.65;10.15;;;0.60;99.90;;;;;;5036791;28;20178;-93
2022/01/10 05:11:56;;;;;;;22.42;13.25;;;0.60;99.90;;;;;;5037300;28;20178;-93
2022/01/10 05:14:22;;;;;;;16.65;10.07;;;0.60;99.90;;;;;;5036715;28;20556;-95
2022/01/10 05:16:48;;;;;;;25.00;12.05;;;0.60;99.90;;;;;;5036665;28;20187;-93
2022/01/10 05:19:14;;;;;;;19.52;10.65;;;0.70;99.90;;;;;;5040859;28;20259;-95
2022/01/10 05:21:40;;;;;;;19.03;11.90;;;0.70;99.90;;;;;;5027816;28;20672;-93
2022/01/10 05:24:07;;;;;;;20.67;12.33;;;0.70;99.90;;;;;;5021617;28;20416;-93
2022/01/10 05:26:33;;;;;;;16.45;9.55;;;0.70;99.90;;;;;;5017647;28;20453;-94
2022/01/10 05:29:01;;;;;;;17.60;10.98;;;0.70;99.90;;;;;;5028096;28;20248;-93
2022/01/10 05:31:28;;;;;;;22.88;13.27;;;1.30;99.90;;;;;;5021756;28;20195;-94
2022/01/10 05:33:55;;;;;;;23.55;13.98;;;1.60;99.90;;;;;;5019630;28;20484;-95
2022/01/10 05:36:21;;;;;;;20.58;13.90;;;1.50;99.90;;;;;;5036366;28;20195;-94
2022/01/10 05:38:47;;;;;;;24.42;14.15;;;1.40;99.90;;;;;;5034944;28;20210;-93
2022/01/10 05:41:13;;;;;;;24.75;14.25;;;1.30;99.90;;;;;;5016198;28;20690;-92
2022/01/10 05:43:39;;;;;;;21.23;12.63;;;1.10;99.90;;;;;;5013571;28;20174;-93
2022/01/10 05:46:09;;;;;;;27.80;16.03;;;1.10;99.90;;;;;;5025429;28;20217;-93
2022/01/10 05:48:36;;;;;;;25.15;14.20;;;1.00;99.90;;;;;;5018259;28;20778;-92
2022/01/10 05:51:02;;;;;;;28.05;14.63;;;1.00;99.90;;;;;;5018642;28;20194;-93
2022/01/10 05:53:28;;;;;;;26.08;15.00;;;0.90;99.90;;;;;;5022028;28;20190;-93
2022/01/10 05:55:54;;;;;;;31.30;16.30;;;0.90;99.90;;;;;;5001487;28;20341;-93
2022/01/10 05:58:20;;;;;;;28.65;16.23;;;0.80;99.90;;;;;;5001906;28;20443;-92
2022/01/10 06:00:46;;;;;;;28.73;15.73;;;0.70;99.90;;;;;;5018325;28;20203;-94
2022/01/10 06:03:12;;;;;;;29.52;15.52;;;0.60;99.90;;;;;;5028128;28;20179;-93
2022/01/10 06:05:38;;;;;;;28.97;14.93;;;0.50;99.90;;;;;;5006932;28;20673;-93
2022/01/10 06:08:05;;;;;;;27.17;16.57;;;0.30;99.90;;;;;;5016545;28;20223;-92
2022/01/10 06:10:32;;;;;;;28.70;16.27;;;0.20;99.90;;;;;;5012081;28;20443;-92
2022/01/10 06:12:58;;;;;;;26.98;15.63;;;0.10;99.90;;;;;;5035784;28;20248;-93
2022/01/10 06:15:24;;;;;;;35.10;18.40;;;0.00;99.90;;;;;;5034994;28;20233;-92
2022/01/10 06:17:50;;;;;;;27.75;17.30;;;-0.10;99.90;;;;;;5021126;28;20230;-92
2022/01/10 06:20:17;;;;;;;27.90;17.92;;;-0.20;99.90;;;;;;5004170;28;20706;-92
2022/01/10 06:22:43;;;;;;;30.45;17.85;;;-0.20;99.90;;;;;;5015834;28;20268;-94
2022/01/10 06:25:12;;;;;;;31.48;18.50;;;-0.30;99.90;;;;;;5019253;28;20278;-94
2022/01/10 06:27:37;;;;;;;39.03;18.60;;;-0.40;99.90;;;;;;5004701;28;20179;-94
2022/01/10 06:30:05;;;;;;;37.27;19.53;;;-0.40;99.90;;;;;;5012221;28;20691;-93
2022/01/10 06:32:31;;;;;;;30.17;18.65;;;-0.50;99.90;;;;;;5017300;28;20209;-93
2022/01/10 06:34:57;;;;;;;34.05;19.70;;;-0.50;99.90;;;;;;5019977;28;20604;-93
2022/01/10 06:37:24;;;;;;;38.28;21.10;;;-0.50;99.90;;;;;;5035829;28;20186;-92
2022/01/10 06:39:51;;;;;;;35.03;19.65;;;-0.60;99.90;;;;;;5017932;28;20289;-93
2022/01/10 06:42:16;;;;;;;44.30;23.17;;;-0.50;99.90;;;;;;5017474;28;20179;-93
2022/01/10 06:44:42;;;;;;;41.13;21.37;;;-0.60;99.90;;;;;;5029400;28;20208;-94
2022/01/10 06:47:08;;;;;;;40.30;23.02;;;-0.60;99.90;;;;;;5014422;28;20443;-93
2022/01/10 06:49:34;;;;;;;48.13;24.30;;;-0.60;99.90;;;;;;5035169;28;20190;-93
2022/01/10 06:52:00;;;;;;;53.10;31.10;;;-0.60;99.90;;;;;;5025490;28;20179;-93
2022/01/10 06:54:25;;;;;;;50.28;26.13;;;-0.60;99.90;;;;;;5021611;28;20172;-92
2022/01/10 06:56:51;;;;;;;46.83;25.77;;;-0.60;99.90;;;;;;5029882;28;20179;-92
2022/01/10 06:59:18;;;;;;;49.17;28.77;;;-0.60;99.90;;;;;;5004842;28;20329;-93
2022/01/10 07:01:44;;;;;;;48.65;26.08;;;-0.60;99.90;;;;;;5028848;28;20221;-93
2022/01/10 07:04:10;;;;;;;50.17;25.50;;;-0.60;99.90;;;;;;5034125;28;20179;-92
2022/01/10 07:06:35;;;;;;;56.10;27.63;;;-0.60;99.90;;;;;;5032399;28;20319;-93
2022/01/10 07:09:01;;;;;;;49.07;26.73;;;-0.60;99.90;;;;;;5006069;28;20641;-92
2022/01/10 07:11:27;;;;;;;59.03;29.33;;;-0.60;99.90;;;;;;5013669;28;20236;-92
2022/01/10 07:13:53;;;;;;;51.47;27.00;;;-0.60;99.90;;;;;;5020260;28;20382;-92
2022/01/10 07:16:19;;;;;;;48.15;27.08;;;-0.60;99.90;;;;;;5033471;28;20195;-92
2022/01/10 07:18:51;;;;;;;41.80;24.90;;;-0.60;99.90;;;;;;5017846;28;20313;-89
2022/01/10 07:21:19;;;;;;;50.83;26.20;;;-0.60;99.90;;;;;;5012081;28;20448;-90
2022/01/10 07:23:45;;;;;;;40.45;20.45;;;-0.60;99.90;;;;;;5020438;28;20282;-91
2022/01/10 07:26:11;;;;;;;48.83;26.57;;;-0.70;99.90;;;;;;5029612;28;20195;-91
2022/01/10 07:28:36;;;;;;;48.97;24.23;;;-0.70;99.90;;;;;;5014989;28;20222;-90
2022/01/10 07:31:02;;;;;;;50.93;26.37;;;-0.70;99.90;;;;;;5011375;28;20260;-94
2022/01/10 07:33:28;;;;;;;48.13;25.27;;;-0.80;99.90;;;;;;5023605;28;20205;-95
2022/01/10 07:35:54;;;;;;;54.40;26.30;;;-0.80;99.90;;;;;;5046633;28;20281;-95
2022/01/10 07:38:20;;;;;;;44.72;23.25;;;-0.80;99.90;;;;;;5016921;28;20470;-96
2022/01/10 07:40:46;;;;;;;50.22;26.05;;;-0.80;99.90;;;;;;5017045;28;20232;-96
2022/01/10 07:43:12;;;;;;;53.97;25.73;;;-0.80;99.90;;;;;;5020626;28;20182;-92
2022/01/10 07:45:38;;;;;;;54.17;28.20;;;-0.80;99.90;;;;;;5016055;28;20536;-96
2022/01/10 07:48:05;;;;;;;53.20;26.45;;;-0.80;99.90;;;;;;5016447;28;20485;-92
2022/01/10 07:50:31;;;;;;;51.35;26.85;;;-0.80;99.90;;;;;;5021477;28;20194;-91
2022/01/10 07:52:56;;;;;;;50.10;26.90;;;-0.90;99.90;;;;;;5032972;28;20217;-91
2022/01/10 07:55:23;;;;;;;50.30;24.87;;;-0.80;99.90;;;;;;5023334;28;20198;-90
2022/01/10 07:57:49;;;;;;;44.95;25.92;;;-0.90;99.90;;;;;;5032486;28;20245;-96
2022/01/10 08:00:15;;;;;;;45.73;27.30;;;-0.80;99.90;;;;;;5030958;28;20210;-94
2022/01/10 08:02:41;;;;;;;56.05;28.35;;;-0.80;99.90;;;;;;5029003;28;20460;-90
2022/01/10 08:05:09;;;;;;;54.20;29.60;;;-0.80;99.90;;;;;;5027395;28;20210;-91
2022/01/10 08:07:35;;;;;;;58.53;28.30;;;-0.80;99.90;;;;;;5033207;28;20437;-91
2022/01/10 08:10:02;;;;;;;54.13;28.50;;;-0.70;99.90;;;;;;5051093;28;20217;-87
2022/01/10 08:12:28;;;;;;;50.55;26.00;;;-0.70;99.90;;;;;;5063451;28;20189;-89
2022/01/10 08:14:54;;;;;;;50.43;28.17;;;-0.70;99.90;;;;;;5016551;28;20194;-95
2022/01/10 08:17:20;;;;;;;51.23;26.33;;;-0.60;99.90;;;;;;5036469;28;20402;-95
2022/01/10 08:19:47;;;;;;;44.43;24.63;;;-0.60;99.90;;;;;;5038637;28;20518;-95
2022/01/10 08:22:12;;;;;;;55.70;27.20;;;-0.60;99.90;;;;;;5013341;28;20487;-88
2022/01/10 08:24:38;;;;;;;43.50;23.73;;;-0.50;99.90;;;;;;5015285;28;20581;-87
2022/01/10 08:27:04;;;;;;;47.43;25.17;;;-0.40;99.90;;;;;;5040292;28;20475;-88
2022/01/10 08:29:30;;;;;;;46.20;25.80;;;-0.30;99.90;;;;;;5034248;28;20436;-88
2022/01/10 08:31:56;;;;;;;45.23;24.53;;;-0.20;99.90;;;;;;5021596;28;20193;-88
2022/01/10 08:34:24;;;;;;;48.10;27.37;;;-0.20;99.90;;;;;;5023172;28;20179;-88
2022/01/10 08:36:50;;;;;;;45.85;27.02;;;-0.20;99.90;;;;;;5028253;28;20530;-88
2022/01/10 08:39:17;;;;;;;46.78;27.13;;;-0.20;99.90;;;;;;5054044;28;20296;-88
2022/01/10 08:41:43;;;;;;;52.83;28.60;;;-0.10;99.90;;;;;;5036850;28;20264;-87
2022/01/10 08:44:09;;;;;;;51.50;25.75;;;0.10;99.90;;;;;;5035490;28;20171;-89
2022/01/10 08:46:35;;;;;;;43.25;23.40;;;0.40;99.90;;;;;;5047377;28;20694;-87
2022/01/10 08:49:00;;;;;;;47.07;25.30;;;0.60;99.90;;;;;;5028791;28;20213;-88
2022/01/10 08:51:28;;;;;;;47.10;25.30;;;0.80;99.90;;;;;;5010816;28;20537;-88
2022/01/10 08:53:54;;;;;;;43.42;24.98;;;1.10;99.90;;;;;;5029477;28;20185;-89
2022/01/10 08:56:20;;;;;;;45.27;24.87;;;1.40;99.90;;;;;;5031184;28;20199;-88
2022/01/10 08:58:46;;;;;;;39.80;25.50;;;1.80;99.90;;;;;;5013023;28;20449;-88
2022/01/10 09:01:12;;;;;;;38.95;23.20;;;2.20;99.90;;;;;;5018581;28;20201;-89
2022/01/10 09:03:39;;;;;;;45.60;25.57;;;2.60;99.90;;;;;;5009437;28;20768;-90
2022/01/10 09:06:05;;;;;;;41.88;22.83;;;3.10;99.90;;;;;;5029489;28;20448;-91
2022/01/10 09:08:38;;;;;;;50.05;27.08;;;3.60;99.90;;;;;;4994072;28;20401;-89
2022/01/10 09:11:05;;;;;;;44.72;26.67;;;4.30;99.90;;;;;;5006333;28;20265;-90
2022/01/10 09:13:31;;;;;;;49.90;27.50;;;4.70;99.90;;;;;;5008853;28;20578;-91
2022/01/10 09:15:57;;;;;;;39.60;24.58;;;5.00;99.90;;;;;;5014941;28;20284;-91
2022/01/10 09:18:24;;;;;;;47.55;25.85;;;5.40;99.90;;;;;;5023476;28;20222;-91
2022/01/10 09:20:52;;;;;;;41.50;25.30;;;5.50;99.90;;;;;;5017121;28;20663;-90
2022/01/10 09:23:18;;;;;;;44.38;25.48;;;5.50;99.90;;;;;;5028701;28;20204;-90
2022/01/10 09:25:44;;;;;;;38.47;25.02;;;5.40;99.90;;;;;;5015780;28;20195;-91
2022/01/10 09:28:10;;;;;;;43.92;26.15;;;5.40;99.90;;;;;;5017991;28;20281;-91
2022/01/10 09:30:36;;;;;;;42.90;25.77;;;5.30;99.90;;;;;;5012677;28;20746;-90
2022/01/10 09:33:02;;;;;;;42.50;25.00;;;5.20;99.90;;;;;;5002772;28;20463;-91
2022/01/10 09:35:28;;;;;;;37.80;24.90;;;5.20;99.90;;;;;;5031043;28;20205;-90
2022/01/10 09:37:57;;;;;;;43.03;24.80;;;5.10;99.90;;;;;;5004111;28;20206;-92
2022/01/10 09:40:23;;;;;;;41.35;25.48;;;5.20;99.90;;;;;;5026288;28;20202;-91
2022/01/10 09:42:50;;;;;;;45.75;26.08;;;5.50;99.90;;;;;;5007165;28;20401;-91
2022/01/10 09:45:17;;;;;;;40.80;25.60;;;5.60;99.90;;;;;;5018202;28;20205;-92
2022/01/10 09:47:42;;;;;;;39.85;24.40;;;5.60;99.90;;;;;;5021814;28;20195;-91
2022/01/10 09:50:09;;;;;;;41.17;25.73;;;5.30;99.90;;;;;;5024279;28;20214;-91
2022/01/10 09:52:39;;;;;;;47.95;26.98;;;4.90;99.90;;;;;;5023005;28;20185;-91
2022/01/10 09:55:08;;;;;;;40.70;24.95;;;4.70;99.90;;;;;;5001789;28;20201;-91
2022/01/10 09:57:34;;;;;;;43.40;25.00;;;4.40;99.90;;;;;;5021870;28;20198;-91
2022/01/10 10:00:01;;;;;;;43.50;25.53;;;4.20;99.90;;;;;;5022080;28;20212;-91
2022/01/10 10:02:31;;;;;;;46.45;26.65;;;4.00;99.90;;;;;;5023701;28;20402;-91
2022/01/10 10:04:57;;;;;;;73.50;42.42;;;3.70;99.90;;;;;;5017538;28;20204;-86
2022/01/10 10:07:24;;;;;;;53.60;33.17;;;3.50;99.90;;;;;;5013383;28;20732;-88
2022/01/10 10:09:50;;;;;;;46.97;27.50;;;3.30;99.90;;;;;;5035767;28;20435;-88
2022/01/10 10:12:16;;;;;;;53.53;29.27;;;3.20;99.90;;;;;;5030520;28;20179;-87
2022/01/10 10:14:45;;;;;;;46.92;28.80;;;3.20;99.90;;;;;;5042583;28;20410;-86
2022/01/10 10:17:16;;;;;;;45.70;28.63;;;3.40;99.90;;;;;;5033543;28;20225;-87
2022/01/10 10:19:43;;;;;;;50.30;27.42;;;3.60;99.90;;;;;;5019905;28;20727;-88
2022/01/10 10:22:09;;;;;;;47.35;25.65;;;3.80;99.90;;;;;;5036565;28;20186;-88
2022/01/10 10:24:34;;;;;;;43.72;26.77;;;4.20;99.90;;;;;;5016110;28;20174;-87
2022/01/10 10:27:02;;;;;;;45.27;26.70;;;4.40;99.90;;;;;;5029150;28;20189;-86
2022/01/10 10:29:29;;;;;;;52.47;29.08;;;4.60;99.90;;;;;;5032855;28;20411;-90
2022/01/10 10:31:56;;;;;;;45.70;30.60;;;4.60;99.90;;;;;;5014003;28;20221;-89
2022/01/10 10:34:31;;;;;;;39.90;24.55;;;4.60;99.90;;;;;;5022131;28;20178;-90
2022/01/10 10:37:06;;;;;;;42.28;25.02;;;4.60;99.90;;;;;;5025233;28;20190;-89
2022/01/10 10:39:35;;;;;;;51.47;29.90;;;4.60;99.90;;;;;;5012105;28;20292;-89
2022/01/10 10:42:05;;;;;;;44.22;27.45;;;4.50;99.90;;;;;;5021655;28;20221;-89
2022/01/10 10:44:33;;;;;;;39.38;25.00;;;4.40;99.90;;;;;;5021804;28;20240;-87
2022/01/10 10:47:03;;;;;;;40.08;25.02;;;4.30;99.90;;;;;;5017453;28;20194;-89
2022/01/10 10:49:36;;;;;;;40.90;24.67;;;4.30;99.90;;;;;;5015815;28;20225;-88
2022/01/10 10:52:05;;;;;;;45.63;26.48;;;4.20;99.90;;;;;;5012740;28;20190;-88
2022/01/10 10:54:32;;;;;;;52.45;28.33;;;4.10;99.90;;;;;;5027669;28;20189;-89
2022/01/10 10:57:05;;;;;;;49.30;27.52;;;4.10;99.90;;;;;;5011439;28;20244;-89
2022/01/10 10:59:35;;;;;;;46.75;26.63;;;4.00;99.90;;;;;;5030142;28;20210;-89
2022/01/10 11:02:02;;;;;;;45.80;26.88;;;4.00;99.90;;;;;;5024833;28;20670;-88
2022/01/10 11:04:30;;;;;;;44.45;26.67;;;4.00;99.90;;;;;;5026740;28;20178;-87
2022/01/10 11:06:57;;;;;;;41.38;25.45;;;3.90;99.90;;;;;;5031875;28;20242;-89
2022/01/10 11:09:23;;;;;;;47.03;25.85;;;3.90;99.90;;;;;;5036757;28;20185;-89
2022/01/10 11:11:49;;;;;;;48.60;28.67;;;3.90;99.90;;;;;;5032736;28;20191;-89
2022/01/10 11:14:17;;;;;;;44.70;28.27;;;3.90;99.90;;;;;;5045378;28;20189;-88
2022/01/10 11:16:45;;;;;;;48.60;29.27;;;4.00;99.90;;;;;;5034418;28;20502;-88
2022/01/10 11:19:16;;;;;;;50.55;30.52;;;4.00;99.90;;;;;;5036608;28;20214;-88
2022/01/10 11:21:46;;;;;;;51.30;31.35;;;3.90;99.90;;;;;;5023643;28;20202;-89
2022/01/10 11:24:11;;;;;;;45.33;28.52;;;3.80;99.90;;;;;;5016478;28;20644;-89
2022/01/10 11:26:43;;;;;;;55.30;28.60;;;3.80;99.90;;;;;;5017732;28;20198;-88
2022/01/10 11:29:10;;;;;;;44.90;28.02;;;3.80;99.90;;;;;;5012355;28;20187;-88
2022/01/10 11:31:39;;;;;;;47.38;27.55;;;3.70;99.90;;;;;;5030322;28;20373;-89
2022/01/10 11:34:05;;;;;;;46.55;27.42;;;3.70;99.90;;;;;;5008121;28;20178;-89
2022/01/10 11:36:31;;;;;;;44.70;29.10;;;3.70;99.90;;;;;;5014001;28;20194;-88
2022/01/10 11:38:59;;;;;;;46.73;29.50;;;3.80;99.90;;;;;;5032362;28;20464;-89
2022/01/10 11:41:32;;;;;;;53.55;29.33;;;3.80;99.90;;;;;;5020951;28;20992;-89
2022/01/10 11:44:06;;;;;;;50.13;28.90;;;3.80;99.90;;;;;;5012657;28;20182;-88
2022/01/10 11:46:48;;;;;;;48.95;30.55;;;3.90;99.90;;;;;;5017152;28;20183;-89
2022/01/10 11:49:13;;;;;;;45.15;27.92;;;3.90;99.90;;;;;;5008497;28;20186;-88
2022/01/10 11:51:41;;;;;;;47.33;27.33;;;4.00;99.90;;;;;;5014085;28;20614;-88
2022/01/10 11:54:08;;;;;;;50.20;29.75;;;4.10;99.90;;;;;;5000570;28;20277;-89
2022/01/10 11:56:36;;;;;;;44.90;28.05;;;4.20;99.90;;;;;;5027987;28;20209;-88
2022/01/10 11:59:19;;;;;;;46.42;27.52;;;4.30;99.90;;;;;;5005990;28;20217;-88
2022/01/10 12:01:57;;;;;;;43.22;26.27;;;4.40;99.90;;;;;;5010949;28;20190;-88
2022/01/10 12:04:23;;;;;;;43.67;28.10;;;4.50;99.90;;;;;;5013557;28;20568;-89
2022/01/10 12:06:51;;;;;;;42.03;27.73;;;4.50;99.90;;;;;;5031067;28;20654;-88
2022/01/10 12:09:17;;;;;;;42.67;26.63;;;4.50;99.90;;;;;;5016356;28;20218;-89
2022/01/10 12:11:45;;;;;;;43.17;27.02;;;4.50;99.90;;;;;;5034358;28;20211;-89
2022/01/10 12:14:13;;;;;;;46.08;30.52;;;4.40;99.90;;;;;;5027250;28;20175;-88
2022/01/10 12:16:39;;;;;;;43.97;24.55;;;4.30;99.90;;;;;;5017004;28;20243;-89
2022/01/10 12:19:06;;;;;;;48.13;28.50;;;4.20;99.90;;;;;;5012986;28;20232;-89
2022/01/10 12:21:32;;;;;;;50.40;29.73;;;4.10;99.90;;;;;;5014213;28;20220;-90
2022/01/10 12:23:59;;;;;;;41.20;26.58;;;3.90;99.90;;;;;;5019375;28;20224;-89
2022/01/10 12:26:29;;;;;;;43.25;29.33;;;3.80;99.90;;;;;;5046951;28;20296;-88
2022/01/10 12:29:00;;;;;;;45.53;26.85;;;3.70;99.90;;;;;;5049357;28;20209;-90
2022/01/10 12:31:30;;;;;;;46.03;27.10;;;3.60;99.90;;;;;;5009584;28;20676;-88
2022/01/10 12:33:58;;;;;;;48.13;29.98;;;3.50;99.90;;;;;;5014746;28;20206;-88
2022/01/10 12:36:26;;;;;;;48.08;28.55;;;3.40;99.90;;;;;;5029071;28;20209;-90
2022/01/10 12:38:57;;;;;;;50.83;29.35;;;3.30;99.90;;;;;;5033000;28;20206;-88
2022/01/10 12:41:23;;;;;;;42.22;27.10;;;3.30;99.90;;;;;;5031265;28;20199;-88
2022/01/10 12:43:49;;;;;;;47.27;27.87;;;3.20;99.90;;;;;;5027316;28;20185;-88
2022/01/10 12:46:17;;;;;;;45.58;26.45;;;3.20;99.90;;;;;;5018804;28;20216;-89